This is the latest recevied weather packets stored in our database for station/object DJ4RO-13. If no packets are shown the sender has not sent any weather packets the latest 1 day(s).
| Time | Temp. | Humidity | Pressure | Rain* | Wind** | Luminosity | Snow |
|---|---|---|---|---|---|---|---|
| 1777988402 | 16.67° C | 79% | 1005.9 hPa | 0 mm | 0.45 m/s, 300° | - | - |
| 1777987802 | 16.67° C | 80% | 1006 hPa | 0 mm | 0.45 m/s, 285° | - | - |
| 1777987202 | 17.22° C | 79% | 1006.2 hPa | 0 mm | 0.45 m/s, 324° | - | - |
| 1777986602 | 17.78° C | 78% | 1005.7 hPa | 0 mm | 0 m/s | - | - |
| 1777986002 | 17.78° C | 76% | 1005.9 hPa | 0 mm | 0.45 m/s, 282° | - | - |
| 1777985402 | 17.78° C | 77% | 1006.1 hPa | 0 mm | 0.89 m/s, 315° | - | - |
| 1777984802 | 17.78° C | 77% | 1006.3 hPa | 0 mm | 0.89 m/s, 332° | - | - |
| 1777984202 | 17.78° C | 77% | 1006.2 hPa | 0 mm | 0.45 m/s, 325° | - | - |
| 1777983602 | 17.22° C | 81% | 1006.5 hPa | 0 mm | 0.45 m/s, 317° | - | - |
| 1777983002 | 17.78° C | 79% | 1006.3 hPa | 0 mm | 0.45 m/s, 113° | - | - |
| 1777982402 | 17.78° C | 78% | 1006.2 hPa | 0 mm | 0.45 m/s, 281° | - | - |
| 1777981802 | 17.22° C | 80% | 1006.3 hPa | 0 mm | 0.45 m/s, 310° | - | - |
| 1777981202 | 17.78° C | 80% | 1006.2 hPa | 0 mm | 0.45 m/s, 330° | - | - |
| 1777980602 | 17.78° C | 80% | 1006.2 hPa | 0 mm | 0.89 m/s, 326° | - | - |
| 1777980002 | 16.67° C | 81% | 1006.5 hPa | 0 mm | 0 m/s | - | - |
| 1777979402 | 17.22° C | 80% | 1006.4 hPa | 0 mm | 0 m/s | - | - |
| 1777978802 | 16.67° C | 82% | 1006.5 hPa | 0 mm | 0.45 m/s, 329° | - | - |
| 1777978202 | 16.67° C | 82% | 1006.5 hPa | 0 mm | 0 m/s | - | - |
| 1777977602 | 16.11° C | 82% | 1006.6 hPa | 0 mm | 0.45 m/s, 304° | - | - |
| 1777977002 | 16.11° C | 80% | 1006.9 hPa | 0 mm | 0 m/s | - | - |
| 1777976402 | 16.11° C | 80% | 1006.7 hPa | 0 mm | 0 m/s | - | - |
| 1777975802 | 16.11° C | 83% | 1006.7 hPa | 0 mm | 0 m/s | - | - |
| 1777975202 | 16.11° C | 81% | 1006.9 hPa | 0 mm | 0.45 m/s, 345° | - | - |
| 1777974602 | 16.11° C | 81% | 1006.9 hPa | 0 mm | 0.45 m/s, 15° | - | - |
| 1777974002 | 15.56° C | 83% | 1006.8 hPa | 0 mm | 0 m/s | - | - |
* Rain latest hour (hover to see other rain measurements)
** Current wind speed in m/s (hover to see current wind gust speed)